Time;durP1;ratioP1;P1;durP2;ratioP2;P2;SDS_P1;SDS_P2;PMS_P1;PMS_P2;Temp;Humidity;BMP_temperature;BMP_pressure;BME280_temperature;BME280_humidity;BME280_pressure;Samples;Min_cycle;Max_cycle;Signal;HPM_P1;HPM_P2
2023/03/03 00:00:42;;;;;;;18.80;7.50;;;;;;;-3.12;100.00;101464.47;5036268;28;20199;-73
2023/03/03 00:03:11;;;;;;;16.77;8.87;;;;;;;-3.10;100.00;101456.88;5029919;28;20210;-73
2023/03/03 00:05:38;;;;;;;22.53;8.43;;;;;;;-3.12;100.00;101463.59;5049599;28;20193;-73
2023/03/03 00:08:09;;;;;;;19.27;7.70;;;;;;;-3.15;100.00;101464.34;5033847;28;20213;-72
2023/03/03 00:10:36;;;;;;;20.67;8.50;;;;;;;-3.12;100.00;101463.59;5034925;28;20203;-73
2023/03/03 00:13:02;;;;;;;18.67;9.33;;;;;;;-3.14;100.00;101460.97;5050179;28;20195;-73
2023/03/03 00:15:31;;;;;;;17.97;9.03;;;;;;;-3.11;100.00;101461.13;5047898;28;20278;-73
2023/03/03 00:18:00;;;;;;;20.53;8.77;;;;;;;-3.12;100.00;101464.47;5048157;28;20207;-73
2023/03/03 00:20:35;;;;;;;17.40;8.00;;;;;;;-3.15;100.00;101472.00;5048398;28;20223;-73
2023/03/03 00:23:16;;;;;;;20.73;9.33;;;;;;;-3.11;100.00;101458.56;5047251;28;20183;-73
2023/03/03 00:25:44;;;;;;;20.53;9.23;;;;;;;-3.10;100.00;101467.09;5046621;28;20690;-73
2023/03/03 00:28:22;;;;;;;19.63;8.63;;;;;;;-3.12;100.00;101468.69;5045840;28;20188;-73
2023/03/03 00:30:48;;;;;;;23.20;9.53;;;;;;;-3.11;100.00;101467.91;5029438;28;20293;-73
2023/03/03 00:33:26;;;;;;;23.00;9.43;;;;;;;-3.14;100.00;101467.78;5030081;28;20287;-74
2023/03/03 00:35:53;;;;;;;20.57;9.20;;;;;;;-3.12;100.00;101461.06;5030985;28;20214;-74
2023/03/03 00:38:20;;;;;;;21.27;9.60;;;;;;;-3.07;100.00;101454.47;5030613;28;20202;-73
2023/03/03 00:40:47;;;;;;;20.37;9.60;;;;;;;-3.06;100.00;101448.53;5030261;28;20212;-74
2023/03/03 00:43:19;;;;;;;21.53;9.77;;;;;;;-3.05;100.00;101452.84;5027944;28;20491;-74
2023/03/03 00:45:48;;;;;;;21.77;10.07;;;;;;;-3.03;100.00;101448.69;5027873;28;20599;-74
2023/03/03 00:48:26;;;;;;;20.73;9.37;;;;;;;-3.02;100.00;101455.53;5029888;28;20203;-74
2023/03/03 00:50:53;;;;;;;24.77;10.37;;;;;;;-3.01;100.00;101454.72;5022896;23;20236;-73
2023/03/03 00:53:21;;;;;;;33.43;10.53;;;;;;;-3.05;100.00;101474.13;5002407;28;20201;-73
2023/03/03 00:55:49;;;;;;;26.37;9.53;;;;;;;-3.02;100.00;101475.09;5000913;28;20234;-74
2023/03/03 00:58:20;;;;;;;18.47;9.43;;;;;;;-2.99;100.00;101468.44;5002660;28;20216;-73
2023/03/03 01:00:48;;;;;;;24.60;10.70;;;;;;;-3.02;100.00;101468.28;5018300;28;20220;-74
2023/03/03 01:03:20;;;;;;;31.83;11.00;;;;;;;-3.02;100.00;101462.31;5005100;28;20212;-73
2023/03/03 01:05:49;;;;;;;22.00;10.07;;;;;;;-3.11;100.00;101467.91;5000699;23;20268;-72
2023/03/03 01:08:16;;;;;;;34.17;11.00;;;;;;;-3.11;100.00;101461.13;4979118;28;20193;-73
2023/03/03 01:10:47;;;;;;;24.57;10.13;;;;;;;-3.03;100.00;101466.53;5000174;28;20289;-71
2023/03/03 01:13:13;;;;;;;22.90;10.23;;;;;;;-3.03;100.00;101452.91;5000704;28;20201;-71
2023/03/03 01:15:40;;;;;;;29.77;11.70;;;;;;;-3.09;100.00;101448.44;5019103;28;20564;-72
2023/03/03 01:18:07;;;;;;;27.97;10.17;;;;;;;-3.07;100.00;101449.38;5018508;28;20298;-71
2023/03/03 01:20:34;;;;;;;21.80;9.80;;;;;;;-3.05;100.00;101442.63;5016682;28;20402;-71
2023/03/03 01:23:02;;;;;;;27.97;11.83;;;;;;;-3.04;100.00;101446.94;5003825;28;20204;-71
2023/03/03 01:25:28;;;;;;;30.40;11.53;;;;;;;-3.04;100.00;101452.06;5002114;28;20227;-71
2023/03/03 01:27:55;;;;;;;21.50;10.33;;;;;;;-3.09;100.00;101450.97;5001691;28;20783;-71
2023/03/03 01:30:22;;;;;;;25.13;10.07;;;;;;;-3.14;100.00;101452.47;5016031;28;20462;-69
2023/03/03 01:32:49;;;;;;;26.73;9.03;;;;;;;-3.11;100.00;101460.25;5000762;28;20196;-70
2023/03/03 01:35:15;;;;;;;20.43;9.00;;;;;;;-3.15;100.00;101450.72;5002269;28;20251;-71
2023/03/03 01:37:43;;;;;;;18.37;7.57;;;;;;;-3.19;100.00;101452.25;5015837;28;20673;-71
2023/03/03 01:40:16;;;;;;;18.80;7.43;;;;;;;-3.18;100.00;101443.81;5002062;28;20220;-72
2023/03/03 01:42:43;;;;;;;38.57;7.83;;;;;;;-3.20;100.00;101442.88;5018148;28;20632;-71
2023/03/03 01:45:20;;;;;;;15.80;7.60;;;;;;;-3.17;100.00;101435.31;5017758;28;20609;-71
2023/03/03 01:47:51;;;;;;;23.63;6.77;;;;;;;-3.19;100.00;101439.50;5004111;28;20219;-72
2023/03/03 01:50:27;;;;;;;11.07;5.60;;;;;;;-3.24;100.00;101446.06;5013861;28;20778;-71
2023/03/03 01:52:54;;;;;;;12.33;6.40;;;;;;;-3.25;100.00;101442.66;5015496;28;20206;-74
2023/03/03 01:55:28;;;;;;;19.80;6.10;;;;;;;-3.31;100.00;101441.53;5020497;28;20231;-73
2023/03/03 01:57:59;;;;;;;8.77;4.03;;;;;;;-3.30;100.00;101435.63;5003161;28;20652;-74
2023/03/03 02:00:26;;;;;;;14.47;5.30;;;;;;;-3.28;100.00;101441.66;5001899;28;20228;-74
2023/03/03 02:02:54;;;;;;;12.97;4.77;;;;;;;-3.29;100.00;101445.00;5000463;28;20300;-72
2023/03/03 02:05:21;;;;;;;15.50;5.00;;;;;;;-3.30;100.00;101451.78;5019121;28;20242;-73
2023/03/03 02:07:48;;;;;;;8.37;4.43;;;;;;;-3.28;100.00;101447.63;4998120;28;20260;-74
2023/03/03 02:10:17;;;;;;;8.93;5.30;;;;;;;-3.29;100.00;101445.00;5016252;28;20205;-74
2023/03/03 02:12:48;;;;;;;10.53;5.13;;;;;;;-3.28;100.00;101439.09;4994575;28;20211;-74
2023/03/03 02:15:20;;;;;;;10.93;4.50;;;;;;;-3.32;100.00;101438.09;5014828;28;20230;-74
2023/03/03 02:17:49;;;;;;;8.93;4.87;;;;;;;-3.31;100.00;101423.66;5016909;28;20192;-74
2023/03/03 02:20:25;;;;;;;9.67;4.93;;;;;;;-3.27;100.00;101418.78;5002109;28;20216;-72
2023/03/03 02:22:58;;;;;;;12.43;4.67;;;;;;;-3.22;100.00;101408.75;5012475;28;20234;-71
2023/03/03 02:25:33;;;;;;;13.67;4.73;;;;;;;-3.22;100.00;101413.84;5012013;28;20336;-71
2023/03/03 02:28:02;;;;;;;13.43;5.37;;;;;;;-3.27;100.00;101431.53;5012335;28;20637;-72
2023/03/03 02:30:28;;;;;;;12.43;4.23;;;;;;;-3.27;100.00;101425.56;4999541;28;20207;-71
2023/03/03 02:32:55;;;;;;;8.30;4.70;;;;;;;-3.22;100.00;101420.63;4994068;28;20251;-70
2023/03/03 02:35:28;;;;;;;6.83;4.37;;;;;;;-3.24;100.00;101434.22;4998203;28;20223;-72
2023/03/03 02:38:01;;;;;;;13.20;4.80;;;;;;;-3.26;100.00;101433.25;5011843;28;20227;-71
2023/03/03 02:40:34;;;;;;;9.30;4.40;;;;;;;-3.22;100.00;101430.84;5013283;28;20235;-70
2023/03/03 02:43:03;;;;;;;9.67;4.70;;;;;;;-3.29;100.00;101445.00;5010906;28;20204;-71
2023/03/03 02:45:31;;;;;;;7.50;4.50;;;;;;;-3.32;100.00;101435.56;4995257;28;20223;-72
2023/03/03 02:47:57;;;;;;;13.73;4.70;;;;;;;-3.31;100.00;101438.97;4996310;28;20208;-70
2023/03/03 02:50:24;;;;;;;8.53;4.40;;;;;;;-3.27;100.00;101433.22;5011889;28;20192;-71
2023/03/03 02:52:51;;;;;;;8.53;5.17;;;;;;;-3.27;100.00;101430.66;4992168;28;20425;-71
2023/03/03 02:55:18;;;;;;;9.80;4.77;;;;;;;-3.28;100.00;101427.22;5011341;28;20332;-71
2023/03/03 02:57:45;;;;;;;21.47;8.93;;;;;;;-3.26;100.00;101425.59;5007671;28;20678;-71
2023/03/03 03:00:13;;;;;;;10.40;5.67;;;;;;;-3.20;100.00;101422.47;4996507;28;20827;-71
2023/03/03 03:02:39;;;;;;;9.63;4.47;;;;;;;-3.17;100.00;101420.03;4992539;28;20197;-70
2023/03/03 03:05:07;;;;;;;9.33;5.03;;;;;;;-3.14;100.00;101414.19;4997695;28;20223;-71
2023/03/03 03:07:34;;;;;;;10.50;5.00;;;;;;;-3.18;100.00;101420.84;4993275;28;20204;-70
2023/03/03 03:10:02;;;;;;;8.37;4.90;;;;;;;-3.17;100.00;101426.81;4996161;28;20188;-71
2023/03/03 03:12:31;;;;;;;11.80;4.70;;;;;;;-3.16;100.00;101426.88;4996355;28;20211;-71
2023/03/03 03:14:59;;;;;;;8.83;4.93;;;;;;;-3.18;100.00;101432.72;4994493;28;20648;-71
2023/03/03 03:17:27;;;;;;;8.97;4.83;;;;;;;-3.13;100.00;101431.22;4999353;28;20745;-71
2023/03/03 03:19:54;;;;;;;16.93;5.33;;;;;;;-3.16;100.00;101442.19;4994290;28;20231;-71
2023/03/03 03:22:21;;;;;;;8.27;4.83;;;;;;;-3.14;100.00;101444.81;4994331;28;20200;-71
2023/03/03 03:24:48;;;;;;;8.70;5.37;;;;;;;-3.11;100.00;101453.47;4992839;28;20215;-71
2023/03/03 03:27:15;;;;;;;11.27;5.43;;;;;;;-3.15;100.00;101453.25;5010576;28;20206;-71
2023/03/03 03:29:41;;;;;;;10.93;5.67;;;;;;;-3.15;100.00;101464.34;4993105;28;20327;-70
2023/03/03 03:32:08;;;;;;;10.20;5.67;;;;;;;-3.13;100.00;101461.84;4995703;28;20286;-72
2023/03/03 03:34:36;;;;;;;10.63;5.03;;;;;;;-3.16;100.00;101454.94;5014054;28;20309;-70
2023/03/03 03:37:04;;;;;;;9.30;5.20;;;;;;;-3.20;100.00;101450.53;5014573;28;20204;-71
2023/03/03 03:39:31;;;;;;;18.40;11.23;;;;;;;-3.19;100.00;101453.94;4991755;28;20216;-71
2023/03/03 03:41:57;;;;;;;18.97;6.13;;;;;;;-3.23;100.00;101452.94;5012087;28;20200;-71
2023/03/03 03:44:24;;;;;;;13.53;5.20;;;;;;;-3.24;100.00;101444.44;4999825;28;20237;-70
2023/03/03 03:46:51;;;;;;;13.33;5.70;;;;;;;-3.25;100.00;101452.88;5009838;28;20193;-71
2023/03/03 03:49:18;;;;;;;10.43;5.27;;;;;;;-3.28;100.00;101460.38;4992687;28;20465;-71
2023/03/03 03:51:45;;;;;;;10.70;5.03;;;;;;;-3.26;100.00;101455.34;5012733;28;20228;-70
2023/03/03 03:54:15;;;;;;;8.80;5.33;;;;;;;-3.27;100.00;101466.38;4996970;28;20274;-71
2023/03/03 03:56:42;;;;;;;8.27;5.17;;;;;;;-3.29;100.00;101456.09;5010813;28;20534;-71
2023/03/03 03:59:10;;;;;;;8.30;4.50;;;;;;;-3.28;100.00;101465.47;4996046;28;20204;-71
2023/03/03 04:01:37;;;;;;;9.33;4.87;;;;;;;-3.34;100.00;101469.44;5010909;28;20188;-70
2023/03/03 04:04:04;;;;;;;8.20;4.80;;;;;;;-3.31;100.00;101475.53;5016865;28;20225;-71
2023/03/03 04:06:31;;;;;;;14.17;4.13;;;;;;;-3.39;100.00;101473.47;5008780;28;20207;-71
2023/03/03 04:08:59;;;;;;;12.63;4.57;;;;;;;-3.39;100.00;101481.09;5001937;28;20265;-71
2023/03/03 04:11:27;;;;;;;7.90;4.57;;;;;;;-3.44;100.00;101491.13;4995859;28;20724;-71
2023/03/03 04:13:53;;;;;;;6.97;3.93;;;;;;;-3.43;100.00;101483.53;5011616;28;20196;-70
2023/03/03 04:16:21;;;;;;;7.73;4.10;;;;;;;-3.36;100.00;101491.44;4998225;28;20561;-71
2023/03/03 04:18:47;;;;;;;10.80;4.93;;;;;;;-3.39;100.00;101487.09;5010928;28;20230;-71
2023/03/03 04:21:16;;;;;;;10.73;5.40;;;;;;;-3.38;100.00;101481.19;4996131;28;20247;-71
2023/03/03 04:23:45;;;;;;;12.03;5.40;;;;;;;-3.40;100.00;101475.16;5014882;28;20192;-71
2023/03/03 04:26:13;;;;;;;10.30;5.50;;;;;;;-3.37;100.00;101470.19;4995768;28;20528;-71
2023/03/03 04:28:40;;;;;;;15.67;5.30;;;;;;;-3.41;100.00;101478.53;4997148;28;20208;-71
2023/03/03 04:31:07;;;;;;;11.60;5.30;;;;;;;-3.50;100.00;101490.84;4994366;28;20239;-70
2023/03/03 04:33:35;;;;;;;12.40;6.20;;;;;;;-3.52;100.00;101489.91;5010462;28;20616;-70
2023/03/03 04:36:03;;;;;;;13.27;6.07;;;;;;;-3.57;100.00;101491.38;5007651;28;20640;-70
2023/03/03 04:38:30;;;;;;;12.80;5.97;;;;;;;-3.51;100.00;101484.00;4995998;28;22584;-71
2023/03/03 04:40:57;;;;;;;11.87;6.00;;;;;;;-3.47;100.00;101480.78;4995906;28;20693;-71
2023/03/03 04:43:27;;;;;;;14.07;6.00;;;;;;;-3.46;100.00;101468.09;4994715;28;20295;-70
2023/03/03 04:45:54;;;;;;;16.23;7.27;;;;;;;-3.53;100.00;101467.78;5002375;28;20223;-72
2023/03/03 04:48:21;;;;;;;15.47;6.43;;;;;;;-3.54;100.00;101469.44;5021345;28;20686;-71
2023/03/03 04:50:48;;;;;;;13.50;6.10;;;;;;;-3.54;100.00;101478.75;4996265;28;20594;-71
2023/03/03 04:53:15;;;;;;;16.80;7.40;;;;;;;-3.55;100.00;101469.34;4996703;28;20641;-71
2023/03/03 04:55:42;;;;;;;16.17;7.80;;;;;;;-3.47;100.00;101463.78;4998764;28;20725;-71
2023/03/03 04:58:09;;;;;;;14.07;6.50;;;;;;;-3.45;100.00;101459.66;5000748;28;20199;-70
2023/03/03 05:00:38;;;;;;;14.90;6.80;;;;;;;-3.45;100.00;101463.88;4997590;28;20842;-71
2023/03/03 05:03:05;;;;;;;23.93;8.17;;;;;;;-3.44;100.00;101470.72;5000945;28;20204;-71
2023/03/03 05:05:32;;;;;;;20.20;7.47;;;;;;;-3.41;100.00;101450.47;4996050;28;20306;-71
2023/03/03 05:07:58;;;;;;;14.50;6.83;;;;;;;-3.40;100.00;101442.00;5012882;28;20215;-71
2023/03/03 05:10:25;;;;;;;19.80;7.77;;;;;;;-3.40;100.00;101439.44;4997464;28;20199;-71
2023/03/03 05:12:51;;;;;;;17.17;7.50;;;;;;;-3.36;100.00;101435.34;5013346;28;20209;-71
2023/03/03 05:15:18;;;;;;;24.43;9.20;;;;;;;-3.35;100.00;101426.91;5013649;28;20745;-71
2023/03/03 05:17:45;;;;;;;20.60;7.77;;;;;;;-3.30;100.00;101420.31;4997972;28;20203;-71
2023/03/03 05:20:13;;;;;;;18.30;7.13;;;;;;;-3.28;100.00;101414.47;5008743;28;21117;-71
2023/03/03 05:22:40;;;;;;;22.20;8.03;;;;;;;-3.27;100.00;101418.78;5012396;28;20662;-71
2023/03/03 05:25:08;;;;;;;16.83;7.37;;;;;;;-3.30;100.00;101431.38;5007945;28;20636;-71
2023/03/03 05:27:34;;;;;;;21.83;7.33;;;;;;;-3.27;100.00;101428.97;5010967;28;20569;-71
2023/03/03 05:30:00;;;;;;;20.87;7.90;;;;;;;-3.28;100.00;101437.41;5014311;28;20275;-71
2023/03/03 05:32:32;;;;;;;22.47;7.47;;;;;;;-3.31;100.00;101441.53;5014396;28;20207;-70
2023/03/03 05:35:00;;;;;;;20.47;7.47;;;;;;;-3.31;100.00;101446.63;5015116;28;20243;-71
2023/03/03 05:37:26;;;;;;;16.50;7.40;;;;;;;-3.41;100.00;101445.38;5015638;28;20230;-71
2023/03/03 05:39:53;;;;;;;13.80;6.27;;;;;;;-3.43;100.00;101452.94;5014810;28;20196;-71
2023/03/03 05:42:19;;;;;;;15.37;6.63;;;;;;;-3.38;100.00;101457.38;5012544;28;20211;-71
2023/03/03 05:44:45;;;;;;;21.10;7.17;;;;;;;-3.35;100.00;101465.16;5009704;28;20443;-71
2023/03/03 05:47:12;;;;;;;16.17;7.00;;;;;;;-3.38;100.00;101457.38;4997371;28;20223;-70
2023/03/03 05:49:38;;;;;;;17.40;6.40;;;;;;;-3.42;100.00;101462.31;5013014;28;20585;-71
2023/03/03 05:52:07;;;;;;;16.37;6.80;;;;;;;-3.41;100.00;101473.41;5011576;28;20677;-71
2023/03/03 05:54:34;;;;;;;12.50;5.93;;;;;;;-3.35;100.00;101462.59;5011732;28;20570;-71
2023/03/03 05:57:01;;;;;;;16.30;6.83;;;;;;;-3.35;100.00;101460.06;4995614;28;20203;-71
2023/03/03 05:59:27;;;;;;;16.00;7.00;;;;;;;-3.35;100.00;101463.47;5015573;28;20200;-71
2023/03/03 06:01:53;;;;;;;13.50;5.93;;;;;;;-3.32;100.00;101472.94;5009084;28;20546;-71
2023/03/03 06:04:20;;;;;;;14.80;6.13;;;;;;;-3.30;100.00;101468.78;5013577;28;20232;-71
2023/03/03 06:06:46;;;;;;;12.90;5.63;;;;;;;-3.31;100.00;101462.78;5019492;28;20769;-71
2023/03/03 06:09:14;;;;;;;18.43;6.27;;;;;;;-3.32;100.00;101475.50;5019618;28;20200;-71
2023/03/03 06:11:40;;;;;;;13.73;5.97;;;;;;;-3.33;100.00;101478.84;5000722;28;20232;-71
2023/03/03 06:14:07;;;;;;;12.53;5.83;;;;;;;-3.33;100.00;101486.50;5018318;28;20222;-71
2023/03/03 06:16:33;;;;;;;14.67;6.30;;;;;;;-3.32;100.00;101490.81;5019627;28;20206;-71
2023/03/03 06:19:00;;;;;;;14.23;6.50;;;;;;;-3.31;100.00;101492.53;5018046;28;20204;-71
2023/03/03 06:21:32;;;;;;;17.30;6.03;;;;;;;-3.29;100.00;101476.50;5020247;28;20219;-71
2023/03/03 06:23:58;;;;;;;14.17;6.33;;;;;;;-3.25;100.00;101478.38;5019176;28;20208;-71
2023/03/03 06:26:26;;;;;;;13.13;5.87;;;;;;;-3.27;100.00;101484.22;5015115;28;20341;-71
2023/03/03 06:28:54;;;;;;;13.77;5.63;;;;;;;-3.23;100.00;101488.66;5015225;28;20597;-70
2023/03/03 06:31:20;;;;;;;14.50;5.40;;;;;;;-3.19;100.00;101487.09;5014782;28;20196;-70
2023/03/03 06:33:46;;;;;;;14.93;6.33;;;;;;;-3.19;100.00;101490.53;4996542;28;20203;-71
2023/03/03 06:36:13;;;;;;;15.37;6.53;;;;;;;-3.23;100.00;101493.75;5019622;28;20205;-71
2023/03/03 06:38:39;;;;;;;14.77;5.83;;;;;;;-3.16;100.00;101500.00;5024590;28;20227;-71
2023/03/03 06:41:07;;;;;;;14.67;6.53;;;;;;;-3.10;100.00;101505.34;5019689;28;20212;-70
2023/03/03 06:43:35;;;;;;;13.30;6.17;;;;;;;-3.09;100.00;101504.56;5020064;28;20202;-71
2023/03/03 06:46:05;;;;;;;15.43;6.23;;;;;;;-3.07;100.00;101510.59;5017748;28;20220;-71
2023/03/03 06:48:32;;;;;;;14.17;6.30;;;;;;;-3.02;100.00;101506.56;5021005;28;20193;-71
2023/03/03 06:51:00;;;;;;;18.43;6.53;;;;;;;-2.96;100.00;101495.75;5014610;28;20199;-71
2023/03/03 06:53:27;;;;;;;17.10;6.60;;;;;;;-2.98;100.00;101487.16;5019551;28;20211;-71
2023/03/03 06:55:54;;;;;;;17.17;6.03;;;;;;;-2.94;100.00;101502.66;5017815;28;20220;-71
2023/03/03 06:58:22;;;;;;;18.33;7.00;;;;;;;-2.93;100.00;101506.09;5020636;28;20214;-71
2023/03/03 07:00:55;;;;;;;18.10;6.67;;;;;;;-2.92;100.00;101497.63;5004243;28;20215;-71
2023/03/03 07:03:23;;;;;;;16.73;6.63;;;;;;;-2.92;100.00;101503.63;5019336;28;20211;-71
2023/03/03 07:05:51;;;;;;;21.30;7.30;;;;;;;-2.81;100.00;101498.06;5022837;28;20254;-71
2023/03/03 07:08:19;;;;;;;20.10;7.87;;;;;;;-2.79;100.00;101496.47;5004065;28;20572;-71
2023/03/03 07:10:47;;;;;;;23.03;8.83;;;;;;;-2.76;100.00;101491.47;5021148;28;20206;-71
2023/03/03 07:13:19;;;;;;;18.03;7.30;;;;;;;-2.71;100.00;101500.19;5005560;28;20197;-71
2023/03/03 07:15:47;;;;;;;17.57;7.67;;;;;;;-2.65;100.00;101502.16;5021787;28;20590;-71
2023/03/03 07:18:31;;;;;;;20.17;6.93;;;;;;;-2.59;100.00;101498.16;5022311;28;20551;-71
2023/03/03 07:20:57;;;;;;;20.80;7.83;;;;;;;-2.54;100.00;101501.78;5017891;28;20208;-71
2023/03/03 07:23:27;;;;;;;24.80;9.07;;;;;;;-2.50;100.00;101511.34;5021300;28;20206;-71
2023/03/03 07:25:54;;;;;;;20.13;8.23;;;;;;;-2.46;100.00;101507.22;5021172;28;20227;-71
2023/03/03 07:28:23;;;;;;;20.60;8.33;;;;;;;-2.44;100.00;101517.50;5022486;28;22213;-71
2023/03/03 07:30:50;;;;;;;24.70;9.23;;;;;;;-2.44;100.00;101523.47;5020502;28;20542;-71
2023/03/03 07:33:25;;;;;;;22.50;9.33;;;;;;;-2.45;100.00;101534.50;5022150;28;20263;-71
2023/03/03 07:35:53;;;;;;;24.77;9.93;;;;;;;-2.37;100.00;101539.94;5025263;28;20430;-71
2023/03/03 07:38:34;;;;;;;23.03;9.67;;;;;;;-2.33;100.00;101541.78;5022368;28;20515;-71
2023/03/03 07:41:02;;;;;;;25.20;9.53;;;;;;;-2.30;100.00;101547.91;5005331;28;20231;-71
2023/03/03 07:43:37;;;;;;;31.07;11.50;;;;;;;-2.22;100.00;101547.34;5023729;28;20754;-71
2023/03/03 07:46:22;;;;;;;26.97;10.27;;;;;;;-2.20;100.00;101561.94;5025334;28;20269;-71
2023/03/03 07:48:52;;;;;;;22.97;9.43;;;;;;;-2.24;100.00;101562.59;5024367;28;20230;-72
2023/03/03 07:51:24;;;;;;;23.80;9.20;;;;;;;-2.29;100.00;101571.75;5021174;28;20204;-70
2023/03/03 07:53:51;;;;;;;17.90;8.10;;;;;;;-2.26;100.00;101571.03;5019822;28;20196;-72
2023/03/03 07:56:26;;;;;;;34.67;10.50;;;;;;;-2.30;100.00;101565.78;5023742;28;20287;-71
2023/03/03 07:58:54;;;;;;;24.10;9.37;;;;;;;-2.39;100.00;101567.97;5014855;28;20204;-72
2023/03/03 08:01:38;;;;;;;54.80;20.30;;;;;;;-2.36;100.00;101560.41;5020676;28;20208;-71
2023/03/03 08:04:15;;;;;;;20.03;8.47;;;;;;;-2.31;100.00;101553.81;5020499;28;20230;-71
2023/03/03 08:06:46;;;;;;;21.10;8.47;;;;;;;-2.26;100.00;101548.03;5026778;28;20195;-71
2023/03/03 08:09:38;;;;;;;22.83;9.00;;;;;;;-2.25;100.00;101543.00;5019923;28;20207;-71
2023/03/03 08:12:23;;;;;;;20.33;9.03;;;;;;;-2.15;100.00;101546.78;5002057;28;20295;-72
2023/03/03 08:14:52;;;;;;;18.70;8.90;;;;;;;-2.13;100.00;101540.94;5022746;28;20243;-70
2023/03/03 08:17:21;;;;;;;20.00;9.13;;;;;;;-2.05;100.00;101543.78;5018133;28;20206;-71
2023/03/03 08:19:50;;;;;;;30.07;9.93;;;;;;;-2.08;100.00;101543.66;5024402;28;20563;-71
2023/03/03 08:22:19;;;;;;;26.83;11.33;;;;;;;-2.00;100.00;101547.41;5023219;28;20594;-72
2023/03/03 08:24:45;;;;;;;31.50;11.87;;;;;;;-2.01;100.00;101534.56;5024814;28;20220;-71
2023/03/03 08:27:11;;;;;;;25.43;10.43;;;;;;;-1.99;100.00;101536.34;5024699;28;20260;-72
2023/03/03 08:29:38;;;;;;;24.43;10.10;;;;;;;-2.01;100.00;101534.56;5025586;28;20575;-71
2023/03/03 08:32:05;;;;;;;27.20;10.50;;;;;;;-2.03;100.00;101539.59;5012767;28;20500;-71
2023/03/03 08:34:32;;;;;;;26.77;10.07;;;;;;;-2.02;100.00;101548.13;5013982;28;20376;-71
2023/03/03 08:36:59;;;;;;;24.03;9.67;;;;;;;-1.96;100.00;101550.94;5028645;28;20204;-71
2023/03/03 08:39:26;;;;;;;22.70;9.40;;;;;;;-1.98;100.00;101545.78;5025195;28;20554;-70
2023/03/03 08:41:52;;;;;;;20.60;10.07;;;;;;;-1.97;100.00;101552.63;5024469;28;20677;-71
2023/03/03 08:44:19;;;;;;;24.27;9.00;;;;;;;-1.97;100.00;101546.63;5006905;28;20270;-71
2023/03/03 08:46:46;;;;;;;21.37;9.87;;;;;;;-1.96;100.00;101556.06;5024589;28;20228;-71
2023/03/03 08:49:12;;;;;;;22.20;9.33;;;;;;;-1.95;100.00;101556.13;5023079;28;21567;-71
2023/03/03 08:51:39;;;;;;;22.87;9.77;;;;;;;-1.95;100.00;101561.22;5009650;28;20219;-71
2023/03/03 08:54:07;;;;;;;27.50;12.10;;;;;;;-1.87;100.00;101560.66;5022539;28;20229;-71
2023/03/03 08:56:33;;;;;;;24.40;10.77;;;;;;;-1.88;100.00;101558.91;5025082;28;20204;-71
2023/03/03 08:58:59;;;;;;;23.37;10.17;;;;;;;-1.87;100.00;101547.88;5023753;28;20532;-72
2023/03/03 09:01:26;;;;;;;19.83;9.53;;;;;;;-1.78;100.00;101543.13;5024399;28;20231;-70
2023/03/03 09:03:52;;;;;;;21.27;8.97;;;;;;;-1.78;100.00;101540.56;5027663;28;20196;-71
2023/03/03 09:06:18;;;;;;;21.57;9.77;;;;;;;-1.79;100.00;101538.84;5024669;28;20569;-71
2023/03/03 09:08:45;;;;;;;15.67;8.17;;;;;;;-1.72;100.00;101543.38;5024153;28;20561;-71
2023/03/03 09:11:14;;;;;;;18.40;8.03;;;;;;;-1.72;100.00;101551.03;5022755;28;20318;-72
2023/03/03 09:13:40;;;;;;;18.73;8.17;;;;;;;-1.86;100.00;101563.28;5025335;28;20747;-71
2023/03/03 09:16:13;;;;;;;16.73;7.67;;;;;;;-1.93;100.00;101564.72;5028041;28;20252;-71
2023/03/03 09:18:40;;;;;;;14.80;7.67;;;;;;;-1.93;100.00;101553.63;5021811;28;20199;-71
2023/03/03 09:21:20;;;;;;;14.23;6.47;;;;;;;-1.86;100.00;101558.16;5027022;28;20199;-71
2023/03/03 09:23:52;;;;;;;15.43;7.10;;;;;;;-1.88;100.00;101562.34;5023232;28;20226;-71
2023/03/03 09:26:29;;;;;;;13.60;7.03;;;;;;;-1.69;100.00;101569.03;5023890;28;20203;-72
2023/03/03 09:29:01;;;;;;;18.57;9.13;;;;;;;-1.69;100.00;101570.72;5021575;28;20196;-71
2023/03/03 09:31:38;;;;;;;17.40;9.43;;;;;;;-1.59;100.00;101576.25;5025220;28;20569;-70
2023/03/03 09:34:15;;;;;;;15.87;8.40;;;;;;;-1.55;100.00;101582.38;5021164;28;20696;-71
2023/03/03 09:36:42;;;;;;;15.57;7.87;;;;;;;-1.54;100.00;101579.00;5018588;28;20275;-71
2023/03/03 09:39:17;;;;;;;13.10;7.70;;;;;;;-1.51;100.00;101581.69;5020332;28;20657;-72
2023/03/03 09:42:02;;;;;;;12.70;7.90;;;;;;;-1.53;100.00;101589.31;5020212;28;21023;-72
2023/03/03 09:44:59;;;;;;;13.27;6.77;;;;;;;-1.64;100.00;101588.00;5022907;28;20744;-71
2023/03/03 09:47:41;;;;;;;14.53;6.97;;;;;;;-1.60;100.00;101583.88;5025255;28;20207;-71
2023/03/03 09:50:20;;;;;;;15.53;7.20;;;;;;;-1.60;100.00;101594.09;5019252;28;20192;-71
2023/03/03 09:52:52;;;;;;;12.93;6.87;;;;;;;-1.56;100.00;101590.88;5025809;28;20693;-71
2023/03/03 09:55:34;;;;;;;11.57;5.90;;;;;;;-1.42;100.00;101584.59;5024370;28;20227;-71
2023/03/03 09:58:18;;;;;;;12.70;6.10;;;;;;;-1.39;100.00;101588.94;5027378;28;20199;-71
2023/03/03 10:00:54;;;;;;;13.80;6.37;;;;;;;-1.31;100.00;101579.00;5025114;28;20680;-72
2023/03/03 10:03:45;;;;;;;12.13;6.43;;;;;;;-1.27;100.00;101588.53;5020670;28;20301;-71
2023/03/03 10:06:21;;;;;;;10.53;6.43;;;;;;;-1.29;100.00;101588.47;5018970;28;20214;-71
2023/03/03 10:08:58;;;;;;;12.83;5.93;;;;;;;-1.33;100.00;101584.06;5022162;28;20194;-72
2023/03/03 10:11:31;;;;;;;11.20;6.13;;;;;;;-1.28;100.00;101584.25;5019354;28;20199;-72
2023/03/03 10:14:26;;;;;;;10.50;6.57;;;;;;;-1.28;100.00;101591.94;5022804;28;20212;-72
2023/03/03 10:17:08;;;;;;;11.90;6.17;;;;;;;-1.28;100.00;101597.06;5015975;28;20211;-72
2023/03/03 10:19:40;;;;;;;10.43;5.53;;;;;;;-1.38;100.00;101599.25;5023138;28;20657;-71
2023/03/03 10:22:19;;;;;;;10.87;6.43;;;;;;;-1.28;100.00;101592.78;5020578;28;20597;-71
2023/03/03 10:24:59;;;;;;;12.10;7.00;;;;;;;-1.27;100.00;101594.53;5021138;28;20306;-71
2023/03/03 10:27:42;;;;;;;9.97;5.93;;;;;;;-1.26;100.00;101592.84;5023946;28;20200;-72
2023/03/03 10:30:19;;;;;;;13.23;7.67;;;;;;;-1.17;100.00;101591.50;5024737;28;20696;-72
2023/03/03 10:32:53;;;;;;;12.90;7.60;;;;;;;-1.30;100.00;101590.97;5021239;28;20195;-72
2023/03/03 10:36:07;;;;;;;12.80;7.23;;;;;;;-1.20;100.00;101595.63;5025077;28;20222;-71
2023/03/03 10:38:49;;;;;;;12.13;6.63;;;;;;;-1.20;100.00;101591.38;5022130;28;20568;-72
2023/03/03 10:41:43;;;;;;;11.43;6.87;;;;;;;-1.13;100.00;101592.47;5005243;28;20220;-71
2023/03/03 10:44:26;;;;;;;16.03;9.70;;;;;;;-1.00;100.00;101591.28;5018008;28;20712;-71
2023/03/03 10:47:05;;;;;;;10.33;5.87;;;;;;;-1.04;100.00;101586.81;5024846;28;20531;-71
2023/03/03 10:49:45;;;;;;;10.73;6.20;;;;;;;-0.98;100.00;101589.63;5027670;28;20572;-71
2023/03/03 10:52:25;;;;;;;12.23;6.90;;;;;;;-0.96;100.00;101586.28;5025975;28;20198;-71
2023/03/03 10:55:08;;;;;;;17.03;6.80;;;;;;;-1.00;100.00;101581.03;5024294;28;20772;-71
2023/03/03 10:57:41;;;;;;;12.50;6.33;;;;;;;-1.05;100.00;101580.84;5023721;28;20204;-72
2023/03/03 11:00:21;;;;;;;13.37;7.57;;;;;;;-1.01;100.00;101581.81;5019995;28;20211;-71
2023/03/03 11:03:11;;;;;;;15.73;7.83;;;;;;;-0.89;100.00;101576.28;5021409;28;20221;-71
2023/03/03 11:05:42;;;;;;;13.40;7.27;;;;;;;-0.89;100.00;101578.84;5025573;28;20227;-72
2023/03/03 11:08:14;;;;;;;12.53;6.70;;;;;;;-0.97;100.00;101566.66;5025344;28;20204;-72
2023/03/03 11:10:51;;;;;;;12.80;6.93;;;;;;;-0.94;100.00;101570.13;5024512;28;20200;-71
2023/03/03 11:13:24;;;;;;;12.77;6.70;;;;;;;-0.95;100.00;101566.69;5025714;28;20250;-72
2023/03/03 11:16:05;;;;;;;13.00;7.23;;;;;;;-0.83;100.00;101569.69;5020656;28;20284;-72
2023/03/03 11:18:44;;;;;;;11.60;6.63;;;;;;;-0.81;100.00;101559.50;5020792;28;20636;-72
2023/03/03 11:21:20;;;;;;;11.60;7.30;;;;;;;-0.75;100.00;101553.72;5022489;28;20223;-72
2023/03/03 11:24:00;;;;;;;11.23;7.07;;;;;;;-0.61;100.00;101550.81;5020854;28;20225;-71